sensor_id;sensor_type;location;lat;lon;timestamp;pressure;altitude;pressure_sealevel;temperature;humidity
54876;BME280;40764;48.472;8.166;2023-02-03T00:01:44;99628.25;;;5.52;92.88
54876;BME280;40764;48.472;8.166;2023-02-03T00:07:45;99624.09;;;5.50;93.16
54876;BME280;40764;48.472;8.166;2023-02-03T00:13:45;99623.41;;;5.54;92.85
54876;BME280;40764;48.472;8.166;2023-02-03T00:19:45;99632.16;;;5.56;92.25
54876;BME280;40764;48.472;8.166;2023-02-03T00:25:46;99621.59;;;5.67;91.70
54876;BME280;40764;48.472;8.166;2023-02-03T00:31:46;99627.00;;;5.67;91.50
54876;BME280;40764;48.472;8.166;2023-02-03T00:37:51;99637.41;;;5.70;91.14
54876;BME280;40764;48.472;8.166;2023-02-03T00:43:53;99634.88;;;5.86;90.49
54876;BME280;40764;48.472;8.166;2023-02-03T00:49:53;99619.31;;;5.82;90.84
54876;BME280;40764;48.472;8.166;2023-02-03T00:55:54;99630.38;;;5.80;91.14
54876;BME280;40764;48.472;8.166;2023-02-03T01:01:54;99639.19;;;5.76;92.06
54876;BME280;40764;48.472;8.166;2023-02-03T01:07:54;99630.22;;;5.75;92.21
54876;BME280;40764;48.472;8.166;2023-02-03T01:13:55;99628.94;;;5.78;92.24
54876;BME280;40764;48.472;8.166;2023-02-03T01:19:58;99629.25;;;5.70;92.27
54876;BME280;40764;48.472;8.166;2023-02-03T01:26:04;99636.09;;;5.72;92.44
54876;BME280;40764;48.472;8.166;2023-02-03T01:32:04;99644.22;;;5.60;93.79
54876;BME280;40764;48.472;8.166;2023-02-03T01:38:05;99639.50;;;5.68;93.83
54876;BME280;40764;48.472;8.166;2023-02-03T01:44:57;99623.94;;;5.63;94.50
54876;BME280;40764;48.472;8.166;2023-02-03T01:50:51;99607.59;;;5.51;96.60
54876;BME280;40764;48.472;8.166;2023-02-03T01:56:58;99606.00;;;5.44;96.45
54876;BME280;40764;48.472;8.166;2023-02-03T02:03:01;99613.09;;;5.45;96.20
54876;BME280;40764;48.472;8.166;2023-02-03T02:09:03;99616.50;;;5.40;97.94
54876;BME280;40764;48.472;8.166;2023-02-03T02:15:04;99618.47;;;5.33;96.95
54876;BME280;40764;48.472;8.166;2023-02-03T02:33:41;99591.47;;;5.38;97.74
54876;BME280;40764;48.472;8.166;2023-02-03T02:39:55;99528.94;;;5.21;98.48
54876;BME280;40764;48.472;8.166;2023-02-03T02:52:12;99532.53;;;5.34;97.60
54876;BME280;40764;48.472;8.166;2023-02-03T02:58:14;99540.41;;;5.35;97.05
54876;BME280;40764;48.472;8.166;2023-02-03T03:04:20;99518.50;;;5.37;96.68
54876;BME280;40764;48.472;8.166;2023-02-03T03:10:24;99502.94;;;5.32;96.73
54876;BME280;40764;48.472;8.166;2023-02-03T03:16:31;99497.38;;;5.27;96.82
54876;BME280;40764;48.472;8.166;2023-02-03T03:22:38;99495.16;;;5.36;96.13
54876;BME280;40764;48.472;8.166;2023-02-03T03:28:46;99501.72;;;5.28;96.54
54876;BME280;40764;48.472;8.166;2023-02-03T03:34:48;99520.06;;;5.44;95.22
54876;BME280;40764;48.472;8.166;2023-02-03T03:40:58;99521.03;;;5.50;94.36
54876;BME280;40764;48.472;8.166;2023-02-03T03:47:08;99517.94;;;5.46;94.00
54876;BME280;40764;48.472;8.166;2023-02-03T03:53:11;99533.97;;;5.48;93.27
54876;BME280;40764;48.472;8.166;2023-02-03T03:59:13;99561.25;;;5.53;93.05
54876;BME280;40764;48.472;8.166;2023-02-03T04:05:15;99566.53;;;5.48;93.16
54876;BME280;40764;48.472;8.166;2023-02-03T04:11:16;99576.28;;;5.67;92.56
54876;BME280;40764;48.472;8.166;2023-02-03T04:17:36;99581.91;;;5.54;94.00
54876;BME280;40764;48.472;8.166;2023-02-03T04:23:37;99585.97;;;5.45;95.06
54876;BME280;40764;48.472;8.166;2023-02-03T04:29:37;99600.59;;;5.44;95.47
54876;BME280;40764;48.472;8.166;2023-02-03T04:35:37;99581.94;;;5.36;96.54
54876;BME280;40764;48.472;8.166;2023-02-03T04:41:37;99581.88;;;5.24;96.83
54876;BME280;40764;48.472;8.166;2023-02-03T04:47:38;99594.50;;;5.12;96.43
54876;BME280;40764;48.472;8.166;2023-02-03T04:53:39;99576.75;;;5.16;96.59
54876;BME280;40764;48.472;8.166;2023-02-03T04:59:39;99553.75;;;5.18;95.99
54876;BME280;40764;48.472;8.166;2023-02-03T05:05:39;99553.16;;;5.16;96.73
54876;BME280;40764;48.472;8.166;2023-02-03T05:11:40;99558.44;;;5.11;96.48
54876;BME280;40764;48.472;8.166;2023-02-03T05:17:40;99546.88;;;5.04;96.10
54876;BME280;40764;48.472;8.166;2023-02-03T05:23:40;99556.19;;;5.08;96.73
54876;BME280;40764;48.472;8.166;2023-02-03T05:29:41;99548.16;;;5.02;96.55
54876;BME280;40764;48.472;8.166;2023-02-03T05:35:41;99548.75;;;5.04;95.96
54876;BME280;40764;48.472;8.166;2023-02-03T05:41:42;99551.69;;;5.02;96.23
54876;BME280;40764;48.472;8.166;2023-02-03T05:47:54;99552.38;;;4.97;96.53
54876;BME280;40764;48.472;8.166;2023-02-03T05:53:54;99560.41;;;5.04;96.06
54876;BME280;40764;48.472;8.166;2023-02-03T05:59:54;99562.59;;;5.14;95.15
54876;BME280;40764;48.472;8.166;2023-02-03T06:05:55;99574.84;;;5.16;95.13
54876;BME280;40764;48.472;8.166;2023-02-03T06:11:55;99577.50;;;5.23;94.44
54876;BME280;40764;48.472;8.166;2023-02-03T06:17:55;99580.88;;;5.37;94.21
54876;BME280;40764;48.472;8.166;2023-02-03T06:23:56;99549.84;;;5.33;93.81
54876;BME280;40764;48.472;8.166;2023-02-03T06:29:56;99582.38;;;5.33;94.01
54876;BME280;40764;48.472;8.166;2023-02-03T06:35:57;99597.38;;;5.35;95.25
54876;BME280;40764;48.472;8.166;2023-02-03T06:41:57;99538.78;;;5.34;95.98
54876;BME280;40764;48.472;8.166;2023-02-03T06:47:57;99532.31;;;5.17;96.36
54876;BME280;40764;48.472;8.166;2023-02-03T06:53:58;99540.16;;;5.07;97.41
54876;BME280;40764;48.472;8.166;2023-02-03T06:59:59;99544.06;;;5.11;97.06
54876;BME280;40764;48.472;8.166;2023-02-03T07:05:59;99543.09;;;5.23;96.34
54876;BME280;40764;48.472;8.166;2023-02-03T07:11:59;99549.09;;;5.25;96.64
54876;BME280;40764;48.472;8.166;2023-02-03T07:17:59;99553.34;;;5.21;96.86
54876;BME280;40764;48.472;8.166;2023-02-03T07:24:00;99555.66;;;5.18;97.31
54876;BME280;40764;48.472;8.166;2023-02-03T07:30:02;99571.91;;;5.18;97.81
54876;BME280;40764;48.472;8.166;2023-02-03T07:36:03;99553.47;;;5.26;97.88
54876;BME280;40764;48.472;8.166;2023-02-03T07:42:03;99557.84;;;5.27;97.63
54876;BME280;40764;48.472;8.166;2023-02-03T07:48:04;99564.47;;;5.32;98.02
54876;BME280;40764;48.472;8.166;2023-02-03T07:54:04;99562.47;;;5.39;97.09
54876;BME280;40764;48.472;8.166;2023-02-03T08:00:05;99571.34;;;5.46;97.00
54876;BME280;40764;48.472;8.166;2023-02-03T08:06:06;99581.69;;;5.37;97.24
54876;BME280;40764;48.472;8.166;2023-02-03T08:12:07;99599.31;;;5.46;97.07
54876;BME280;40764;48.472;8.166;2023-02-03T08:18:07;99596.44;;;5.41;97.36
54876;BME280;40764;48.472;8.166;2023-02-03T08:24:08;99611.81;;;5.47;97.95
54876;BME280;40764;48.472;8.166;2023-02-03T08:30:11;99621.41;;;5.50;97.46
54876;BME280;40764;48.472;8.166;2023-02-03T08:36:12;99631.56;;;5.84;96.45
54876;BME280;40764;48.472;8.166;2023-02-03T08:42:13;99626.91;;;5.73;97.08
54876;BME280;40764;48.472;8.166;2023-02-03T08:48:13;99627.69;;;5.62;98.37
54876;BME280;40764;48.472;8.166;2023-02-03T08:54:14;99666.88;;;5.66;98.34
54876;BME280;40764;48.472;8.166;2023-02-03T09:00:14;99671.53;;;5.96;98.27
54876;BME280;40764;48.472;8.166;2023-02-03T09:06:15;99661.69;;;6.13;97.32
54876;BME280;40764;48.472;8.166;2023-02-03T09:12:16;99659.50;;;6.03;96.98
54876;BME280;40764;48.472;8.166;2023-02-03T09:18:16;99678.38;;;5.98;96.93
54876;BME280;40764;48.472;8.166;2023-02-03T09:24:17;99668.78;;;6.14;95.60
54876;BME280;40764;48.472;8.166;2023-02-03T09:30:17;99665.97;;;6.20;95.00
54876;BME280;40764;48.472;8.166;2023-02-03T09:36:18;99643.59;;;6.07;95.68
54876;BME280;40764;48.472;8.166;2023-02-03T09:48:58;99647.78;;;6.21;95.41
54876;BME280;40764;48.472;8.166;2023-02-03T10:01:58;99637.50;;;6.11;95.57
54876;BME280;40764;48.472;8.166;2023-02-03T10:08:14;99621.19;;;6.11;95.61
54876;BME280;40764;48.472;8.166;2023-02-03T10:20:47;99629.78;;;6.38;95.39
54876;BME280;40764;48.472;8.166;2023-02-03T10:26:51;99632.47;;;6.38;95.72
54876;BME280;40764;48.472;8.166;2023-02-03T10:32:59;99621.16;;;6.53;95.49
54876;BME280;40764;48.472;8.166;2023-02-03T10:39:18;99633.19;;;6.57;95.44
54876;BME280;40764;48.472;8.166;2023-02-03T10:45:22;99634.25;;;6.56;94.63
54876;BME280;40764;48.472;8.166;2023-02-03T10:51:25;99634.84;;;6.46;93.10
54876;BME280;40764;48.472;8.166;2023-02-03T10:57:27;99629.53;;;6.51;93.38
54876;BME280;40764;48.472;8.166;2023-02-03T11:03:28;99610.53;;;6.63;93.36
54876;BME280;40764;48.472;8.166;2023-02-03T11:09:37;99615.97;;;6.75;92.27
54876;BME280;40764;48.472;8.166;2023-02-03T11:16:14;99613.25;;;6.75;92.44
54876;BME280;40764;48.472;8.166;2023-02-03T11:22:35;99598.59;;;6.64;92.14
54876;BME280;40764;48.472;8.166;2023-02-03T11:28:41;99589.84;;;6.62;92.52
54876;BME280;40764;48.472;8.166;2023-02-03T11:34:55;99580.88;;;6.62;91.56
54876;BME280;40764;48.472;8.166;2023-02-03T11:41:00;99572.63;;;6.68;90.58
54876;BME280;40764;48.472;8.166;2023-02-03T11:47:08;99548.25;;;6.85;89.75
54876;BME280;40764;48.472;8.166;2023-02-03T11:53:24;99539.97;;;6.92;89.73
54876;BME280;40764;48.472;8.166;2023-02-03T12:00:13;99561.38;;;6.65;90.60
54876;BME280;40764;48.472;8.166;2023-02-03T12:12:51;99562.44;;;6.87;89.15
54876;BME280;40764;48.472;8.166;2023-02-03T12:32:08;99558.88;;;6.98;88.32
54876;BME280;40764;48.472;8.166;2023-02-03T12:38:30;99545.44;;;6.80;88.63
54876;BME280;40764;48.472;8.166;2023-02-03T12:44:38;99561.84;;;6.97;87.08
54876;BME280;40764;48.472;8.166;2023-02-03T12:50:44;99537.25;;;7.03;86.29
54876;BME280;40764;48.472;8.166;2023-02-03T12:56:49;99540.53;;;7.05;86.66
54876;BME280;40764;48.472;8.166;2023-02-03T13:02:59;99524.66;;;7.14;85.87
54876;BME280;40764;48.472;8.166;2023-02-03T13:15:27;99523.00;;;7.13;86.11
54876;BME280;40764;48.472;8.166;2023-02-03T13:21:29;99512.88;;;7.08;86.29
54876;BME280;40764;48.472;8.166;2023-02-03T13:27:38;99523.41;;;7.05;86.30
54876;BME280;40764;48.472;8.166;2023-02-03T13:40:19;99523.88;;;6.90;88.41
54876;BME280;40764;48.472;8.166;2023-02-03T13:46:31;99514.31;;;6.88;89.34
54876;BME280;40764;48.472;8.166;2023-02-03T13:52:33;99462.81;;;6.81;90.06
54876;BME280;40764;48.472;8.166;2023-02-03T13:58:36;99492.13;;;6.79;90.97
54876;BME280;40764;48.472;8.166;2023-02-03T14:10:44;99507.00;;;7.00;87.44
54876;BME280;40764;48.472;8.166;2023-02-03T14:16:51;99503.63;;;7.09;85.85
54876;BME280;40764;48.472;8.166;2023-02-03T14:23:27;99489.97;;;6.93;88.00
54876;BME280;40764;48.472;8.166;2023-02-03T14:29:31;99495.19;;;6.94;87.85
54876;BME280;40764;48.472;8.166;2023-02-03T14:35:36;99490.66;;;7.00;87.71
54876;BME280;40764;48.472;8.166;2023-02-03T14:55:00;99509.81;;;7.05;88.78
54876;BME280;40764;48.472;8.166;2023-02-03T15:01:03;99519.13;;;7.09;87.05
54876;BME280;40764;48.472;8.166;2023-02-03T15:07:04;99517.66;;;7.18;86.96
54876;BME280;40764;48.472;8.166;2023-02-03T15:13:04;99527.25;;;7.21;85.70
54876;BME280;40764;48.472;8.166;2023-02-03T15:19:15;99524.66;;;7.14;86.69
54876;BME280;40764;48.472;8.166;2023-02-03T15:25:17;99533.09;;;7.01;87.70
54876;BME280;40764;48.472;8.166;2023-02-03T15:43:39;99541.25;;;7.01;88.82
54876;BME280;40764;48.472;8.166;2023-02-03T15:49:42;99535.25;;;6.99;88.37
54876;BME280;40764;48.472;8.166;2023-02-03T15:55:45;99530.75;;;6.93;89.54
54876;BME280;40764;48.472;8.166;2023-02-03T16:01:47;99531.94;;;6.97;89.55
54876;BME280;40764;48.472;8.166;2023-02-03T16:07:48;99545.53;;;6.62;93.88
54876;BME280;40764;48.472;8.166;2023-02-03T16:13:49;99543.78;;;6.67;94.40
54876;BME280;40764;48.472;8.166;2023-02-03T16:19:50;99544.94;;;6.83;94.42
54876;BME280;40764;48.472;8.166;2023-02-03T16:26:16;99531.84;;;6.57;96.12
54876;BME280;40764;48.472;8.166;2023-02-03T16:32:17;99563.28;;;6.41;98.10
54876;BME280;40764;48.472;8.166;2023-02-03T16:38:37;99563.00;;;6.31;99.10
54876;BME280;40764;48.472;8.166;2023-02-03T16:44:55;99565.75;;;6.42;100.00
54876;BME280;40764;48.472;8.166;2023-02-03T16:51:16;99586.31;;;6.50;99.94
54876;BME280;40764;48.472;8.166;2023-02-03T16:57:16;99561.38;;;6.41;100.00
54876;BME280;40764;48.472;8.166;2023-02-03T17:03:19;99550.50;;;6.30;100.00
54876;BME280;40764;48.472;8.166;2023-02-03T17:09:20;99548.06;;;6.40;100.00
54876;BME280;40764;48.472;8.166;2023-02-03T17:15:22;99562.44;;;6.29;100.00
54876;BME280;40764;48.472;8.166;2023-02-03T17:21:25;99572.81;;;6.32;100.00
54876;BME280;40764;48.472;8.166;2023-02-03T17:27:27;99575.66;;;6.25;100.00
54876;BME280;40764;48.472;8.166;2023-02-03T17:33:28;99569.63;;;6.23;100.00
54876;BME280;40764;48.472;8.166;2023-02-03T17:39:29;99573.50;;;6.15;100.00
54876;BME280;40764;48.472;8.166;2023-02-03T17:45:30;99560.06;;;6.20;100.00
54876;BME280;40764;48.472;8.166;2023-02-03T17:51:31;99554.63;;;6.20;100.00
54876;BME280;40764;48.472;8.166;2023-02-03T17:57:31;99567.72;;;6.24;100.00
54876;BME280;40764;48.472;8.166;2023-02-03T18:03:35;99574.09;;;6.17;100.00
54876;BME280;40764;48.472;8.166;2023-02-03T18:09:35;99571.63;;;6.28;100.00
54876;BME280;40764;48.472;8.166;2023-02-03T18:15:36;99579.66;;;6.22;100.00
54876;BME280;40764;48.472;8.166;2023-02-03T18:21:38;99574.22;;;6.22;100.00
54876;BME280;40764;48.472;8.166;2023-02-03T18:27:39;99566.91;;;6.23;100.00
54876;BME280;40764;48.472;8.166;2023-02-03T18:33:40;99584.63;;;6.26;100.00
54876;BME280;40764;48.472;8.166;2023-02-03T18:39:42;99582.50;;;6.28;100.00
54876;BME280;40764;48.472;8.166;2023-02-03T18:45:43;99597.19;;;6.38;100.00
54876;BME280;40764;48.472;8.166;2023-02-03T18:51:44;99596.06;;;6.16;100.00
54876;BME280;40764;48.472;8.166;2023-02-03T18:57:44;99588.75;;;6.16;100.00
54876;BME280;40764;48.472;8.166;2023-02-03T19:03:46;99585.44;;;6.26;100.00
54876;BME280;40764;48.472;8.166;2023-02-03T19:09:46;99587.81;;;6.22;100.00
54876;BME280;40764;48.472;8.166;2023-02-03T19:15:47;99594.41;;;6.15;100.00
54876;BME280;40764;48.472;8.166;2023-02-03T19:21:47;99596.88;;;6.16;100.00
54876;BME280;40764;48.472;8.166;2023-02-03T19:27:48;99600.63;;;6.04;100.00
54876;BME280;40764;48.472;8.166;2023-02-03T19:33:49;99590.16;;;6.07;100.00
54876;BME280;40764;48.472;8.166;2023-02-03T19:39:50;99608.50;;;5.94;100.00
54876;BME280;40764;48.472;8.166;2023-02-03T19:45:50;99600.44;;;5.87;100.00
54876;BME280;40764;48.472;8.166;2023-02-03T19:51:51;99605.78;;;5.94;100.00
54876;BME280;40764;48.472;8.166;2023-02-03T19:57:52;99617.84;;;5.98;100.00
54876;BME280;40764;48.472;8.166;2023-02-03T20:03:53;99604.91;;;5.81;100.00
54876;BME280;40764;48.472;8.166;2023-02-03T20:09:53;99610.41;;;6.05;100.00
54876;BME280;40764;48.472;8.166;2023-02-03T20:15:54;99625.91;;;5.86;100.00
54876;BME280;40764;48.472;8.166;2023-02-03T20:21:54;99631.75;;;5.89;100.00
54876;BME280;40764;48.472;8.166;2023-02-03T20:27:54;99632.88;;;5.82;100.00
54876;BME280;40764;48.472;8.166;2023-02-03T20:33:56;99636.88;;;5.79;100.00
54876;BME280;40764;48.472;8.166;2023-02-03T20:39:56;99651.50;;;5.78;100.00
54876;BME280;40764;48.472;8.166;2023-02-03T20:45:57;99654.72;;;5.87;100.00
54876;BME280;40764;48.472;8.166;2023-02-03T20:51:57;99660.25;;;5.80;100.00
54876;BME280;40764;48.472;8.166;2023-02-03T20:57:57;99662.25;;;5.85;100.00
54876;BME280;40764;48.472;8.166;2023-02-03T21:04:00;99649.22;;;5.94;100.00
54876;BME280;40764;48.472;8.166;2023-02-03T21:10:21;99646.28;;;5.95;100.00
54876;BME280;40764;48.472;8.166;2023-02-03T21:16:24;99657.38;;;5.94;100.00
54876;BME280;40764;48.472;8.166;2023-02-03T21:22:27;99653.25;;;6.03;100.00
54876;BME280;40764;48.472;8.166;2023-02-03T21:28:31;99651.19;;;6.16;100.00
54876;BME280;40764;48.472;8.166;2023-02-03T21:34:33;99647.59;;;6.04;100.00
54876;BME280;40764;48.472;8.166;2023-02-03T21:40:34;99656.56;;;6.05;100.00
54876;BME280;40764;48.472;8.166;2023-02-03T21:46:34;99649.41;;;6.10;100.00
54876;BME280;40764;48.472;8.166;2023-02-03T21:52:34;99651.97;;;6.05;100.00
54876;BME280;40764;48.472;8.166;2023-02-03T21:58:35;99648.94;;;6.13;100.00
54876;BME280;40764;48.472;8.166;2023-02-03T22:04:36;99648.06;;;6.01;100.00
54876;BME280;40764;48.472;8.166;2023-02-03T22:10:36;99649.72;;;6.02;100.00
54876;BME280;40764;48.472;8.166;2023-02-03T22:16:37;99661.69;;;6.13;100.00
54876;BME280;40764;48.472;8.166;2023-02-03T22:22:37;99652.63;;;6.19;100.00
54876;BME280;40764;48.472;8.166;2023-02-03T22:28:38;99649.09;;;6.30;100.00
54876;BME280;40764;48.472;8.166;2023-02-03T22:34:39;99644.72;;;6.17;100.00
54876;BME280;40764;48.472;8.166;2023-02-03T22:40:39;99637.16;;;6.31;100.00
54876;BME280;40764;48.472;8.166;2023-02-03T22:46:40;99638.59;;;6.34;100.00
54876;BME280;40764;48.472;8.166;2023-02-03T22:52:41;99636.25;;;6.37;100.00
54876;BME280;40764;48.472;8.166;2023-02-03T22:58:41;99651.16;;;6.46;100.00
54876;BME280;40764;48.472;8.166;2023-02-03T23:04:42;99657.06;;;6.43;100.00
54876;BME280;40764;48.472;8.166;2023-02-03T23:10:42;99651.28;;;6.51;100.00
54876;BME280;40764;48.472;8.166;2023-02-03T23:16:42;99666.06;;;6.67;100.00
54876;BME280;40764;48.472;8.166;2023-02-03T23:22:43;99657.41;;;6.59;100.00
54876;BME280;40764;48.472;8.166;2023-02-03T23:28:44;99657.28;;;6.53;100.00
54876;BME280;40764;48.472;8.166;2023-02-03T23:34:44;99636.50;;;6.47;100.00
54876;BME280;40764;48.472;8.166;2023-02-03T23:41:03;99650.91;;;6.60;100.00
54876;BME280;40764;48.472;8.166;2023-02-03T23:47:03;99646.66;;;6.64;100.00
54876;BME280;40764;48.472;8.166;2023-02-03T23:53:04;99626.81;;;6.51;100.00
54876;BME280;40764;48.472;8.166;2023-02-03T23:59:04;99642.06;;;6.41;100.00
